Ibiraci, Brazil
Current Conditions -  °F | °C
As of 12:00 PM on Thursday 30 Oct 2014 (Local Time) from SBRP Reporting Station
Few Clouds Few Clouds  
Wind Chill: 90°   Ceiling: Unl
Heat Index: 90°   Visibility: 6mi
Dew Point: 57°   Wind: 13mph
Humidity: 33%   Direction: 340°NNW
Pressure: 29.88"   Gusts: NA
Location:  20.46°S, 47.12°W
Report Text: SBRP 301400Z 34011KT 9999 FEW035 32/14 Q1012
Loading
Personal Weather Stations






























Interactive Weather Map
Tropical Storm Tracking
New forecast layout! Learn more

10-Day Weather Forecast

Advertisements
Track Severe Weather on mobile